createdAt,value
2016-04-25T00:00:33.419Z,1010.85
2016-04-25T00:01:33.422Z,1010.84
2016-04-25T00:02:33.439Z,1010.85
2016-04-25T00:03:33.441Z,1010.84
2016-04-25T00:04:33.476Z,1010.85
2016-04-25T00:05:33.480Z,1010.8
2016-04-25T00:06:33.482Z,1010.8
2016-04-25T00:07:33.499Z,1010.81
2016-04-25T00:08:33.502Z,1010.76
2016-04-25T00:09:33.520Z,1010.73
2016-04-25T00:10:33.524Z,1010.74
2016-04-25T00:11:39.808Z,1010.74
2016-04-25T00:12:33.560Z,1010.74
2016-04-25T00:13:33.562Z,1010.76
2016-04-25T00:14:33.581Z,1010.75
2016-04-25T00:15:33.584Z,1010.76
2016-04-25T00:16:33.602Z,1010.7
2016-04-25T00:17:33.637Z,1010.7
2016-04-25T00:18:33.623Z,1010.74
2016-04-25T00:19:33.641Z,1010.75
2016-04-25T00:20:33.644Z,1010.74
2016-04-25T00:21:33.648Z,1010.75
2016-04-25T00:22:33.670Z,1010.78
2016-04-25T00:23:33.673Z,1010.76
2016-04-25T00:24:33.707Z,1010.77
2016-04-25T00:25:35.117Z,1010.74
2016-04-25T00:26:33.712Z,1010.74
2016-04-25T00:27:33.731Z,1010.73
2016-04-25T00:28:33.734Z,1010.74
2016-04-25T00:29:33.752Z,1010.72
2016-04-25T00:30:40.037Z,1010.7
2016-04-25T00:31:33.773Z,1010.7
2016-04-25T00:32:33.776Z,1010.66
2016-04-25T00:33:33.795Z,1010.62
2016-04-25T00:34:33.797Z,1010.6
2016-04-25T00:35:33.815Z,1010.58
2016-04-25T00:36:33.833Z,1010.59
2016-04-25T00:37:33.837Z,1010.6
2016-04-25T00:38:33.855Z,1010.58
2016-04-25T00:39:33.858Z,1010.56
2016-04-25T00:40:33.875Z,1010.6
2016-04-25T00:41:33.878Z,1010.57
2016-04-25T00:42:46.646Z,1010.56
2016-04-25T00:43:33.916Z,1010.54
2016-04-25T00:44:33.918Z,1010.54
2016-04-25T00:45:33.936Z,1010.53
2016-04-25T00:46:33.938Z,1010.51
2016-04-25T00:47:33.958Z,1010.53
2016-04-25T00:48:33.960Z,1010.53
2016-04-25T00:49:33.978Z,1010.52
2016-04-25T00:50:33.980Z,1010.5
2016-04-25T00:51:33.999Z,1010.49
2016-04-25T00:52:34.017Z,1010.45
2016-04-25T00:53:34.630Z,1010.46
2016-04-25T00:54:34.648Z,1010.47
2016-04-25T00:55:34.057Z,1010.4
2016-04-25T00:56:34.059Z,1010.44
2016-04-25T00:57:47.610Z,1010.43
2016-04-25T00:58:34.081Z,1010.41
2016-04-25T00:59:34.099Z,1010.43
2016-04-25T01:00:43.648Z,1010.42
2016-04-25T01:01:43.666Z,1010.41
2016-04-25T01:02:43.684Z,1010.41
2016-04-25T01:03:43.688Z,1010.39
2016-04-25T01:04:43.706Z,1010.42
2016-04-25T01:05:43.725Z,1010.41
2016-04-25T01:06:43.727Z,1010.36
2016-04-25T01:07:43.745Z,1010.42
2016-04-25T01:08:43.748Z,1010.4
2016-04-25T01:09:43.751Z,1010.41
2016-04-25T01:10:43.769Z,1010.4
2016-04-25T01:11:50.052Z,1010.38
2016-04-25T01:12:43.789Z,1010.36
2016-04-25T01:13:43.808Z,1010.39
2016-04-25T01:14:43.811Z,1010.37
2016-04-25T01:15:45.251Z,1010.35
2016-04-25T01:16:43.832Z,1010.4
2016-04-25T01:17:43.850Z,1010.37
2016-04-25T01:18:43.869Z,1010.35
2016-04-25T01:19:43.887Z,1010.34
2016-04-25T01:20:45.311Z,1010.37
2016-04-25T01:21:43.892Z,1010.38
2016-04-25T01:22:46.958Z,1010.43
2016-04-25T01:23:43.913Z,1010.41
2016-04-25T01:24:43.931Z,1010.39
2016-04-25T01:25:43.949Z,1010.4
2016-04-25T01:26:43.952Z,1010.39
2016-04-25T01:27:43.971Z,1010.38
2016-04-25T01:28:43.974Z,1010.36
2016-04-25T01:29:43.992Z,1010.34
2016-04-25T01:30:44.010Z,1010.34
2016-04-25T01:31:44.013Z,1010.3
2016-04-25T01:32:50.297Z,1010.38
2016-04-25T01:33:44.050Z,1010.33
2016-04-25T01:34:44.037Z,1010.33
2016-04-25T01:35:47.117Z,1010.33
2016-04-25T01:36:47.136Z,1010.35
2016-04-25T01:37:47.748Z,1010.33
2016-04-25T01:38:47.156Z,1010.32
2016-04-25T01:39:47.175Z,1010.29
2016-04-25T01:40:59.915Z,1010.29
2016-04-25T01:41:47.197Z,1010.32
2016-04-25T01:42:47.277Z,1010.31
2016-04-25T01:43:47.216Z,1010.27
2016-04-25T01:44:59.972Z,1010.27
2016-04-25T01:45:47.238Z,1010.28
2016-04-25T01:46:47.256Z,1010.27
2016-04-25T01:47:47.259Z,1010.23
2016-04-25T01:49:59.830Z,1010.24
2016-04-25T01:50:56.814Z,1010.2
2016-04-25T01:52:16.038Z,1010.18
2016-04-25T01:52:56.835Z,1010.17
2016-04-25T01:53:56.854Z,1010.16
2016-04-25T01:54:56.872Z,1010.13
2016-04-25T01:55:56.874Z,1010.2
2016-04-25T01:56:56.893Z,1010.14
2016-04-25T01:57:56.895Z,1010.14
2016-04-25T01:58:56.960Z,1010.12
2016-04-25T02:00:16.122Z,1010.14
2016-04-25T02:00:56.918Z,1010.13
2016-04-25T02:01:56.954Z,1010.14
2016-04-25T02:02:56.956Z,1010.13
2016-04-25T02:03:58.381Z,1010.14
2016-04-25T02:04:56.976Z,1010.12
2016-04-25T02:05:56.979Z,1010.17
2016-04-25T02:06:56.998Z,1010.15
2016-04-25T02:07:57.001Z,1010.12
2016-04-25T02:08:57.019Z,1010.14
2016-04-25T02:09:57.037Z,1010.14
2016-04-25T02:10:57.039Z,1010.12
2016-04-25T02:11:57.043Z,1010.13
2016-04-25T02:12:57.061Z,1010.12
2016-04-25T02:13:57.078Z,1010.11
2016-04-25T02:14:57.097Z,1010.14
2016-04-25T02:15:57.084Z,1010.15
2016-04-25T02:17:09.839Z,1010.13
2016-04-25T02:17:57.121Z,1010.15
2016-04-25T02:19:09.860Z,1010.14
2016-04-25T02:19:57.157Z,1010.08
2016-04-25T02:20:57.144Z,1010.1
2016-04-25T02:21:57.164Z,1010.14
2016-04-25T02:22:57.166Z,1010.07
2016-04-25T02:23:57.184Z,1010.05
2016-04-25T02:24:57.202Z,1010.05
2016-04-25T02:25:57.204Z,1010.06
2016-04-25T02:26:57.818Z,1010
2016-04-25T02:27:57.289Z,1010.01
2016-04-25T02:28:57.243Z,1009.96
2016-04-25T02:30:09.984Z,1009.98
2016-04-25T02:30:57.265Z,1009.97
2016-04-25T02:31:57.284Z,1009.97
2016-04-25T02:33:16.493Z,1009.96
2016-04-25T02:33:57.305Z,1009.96
2016-04-25T02:36:38.140Z,1010.01
2016-04-25T02:37:12.487Z,1009.94
2016-04-25T02:39:12.492Z,1009.96
2016-04-25T02:40:12.512Z,1009.96
2016-04-25T02:41:12.514Z,1009.96
2016-04-25T02:42:12.532Z,1009.98
2016-04-25T02:43:12.550Z,1009.94
2016-04-25T02:44:15.537Z,1009.91
2016-04-25T02:45:15.556Z,1009.92
2016-04-25T02:46:15.575Z,1009.89
2016-04-25T02:47:15.577Z,1009.84
2016-04-25T02:48:15.595Z,1009.86
2016-04-25T02:49:28.333Z,1009.88
2016-04-25T02:50:15.600Z,1009.87
2016-04-25T02:51:15.619Z,1009.8
2016-04-25T02:52:15.638Z,1009.8
2016-04-25T02:53:28.374Z,1009.76
2016-04-25T02:54:15.658Z,1009.82
2016-04-25T02:55:41.332Z,1009.81
2016-04-25T02:56:15.680Z,1009.78
2016-04-25T02:57:15.697Z,1009.8
2016-04-25T02:58:28.466Z,1009.83
2016-04-25T02:59:15.703Z,1009.8
2016-04-25T03:00:15.721Z,1009.77
2016-04-25T03:01:15.724Z,1009.73
2016-04-25T03:02:15.742Z,1009.77
2016-04-25T03:03:15.746Z,1009.74
2016-04-25T03:04:15.763Z,1009.72
2016-04-25T03:05:28.515Z,1009.73
2016-04-25T03:06:15.785Z,1009.77
2016-04-25T03:07:15.803Z,1009.73
2016-04-25T03:08:15.805Z,1009.71
2016-04-25T03:09:35.026Z,1009.74
2016-04-25T03:10:18.904Z,1009.73
2016-04-25T03:11:18.923Z,1009.73
2016-04-25T03:12:18.941Z,1009.69
2016-04-25T03:13:18.944Z,1009.73
2016-04-25T03:14:25.228Z,1009.73
2016-04-25T03:15:18.964Z,1009.72
2016-04-25T03:16:18.983Z,1009.73
2016-04-25T03:17:25.251Z,1009.72
2016-04-25T03:18:19.003Z,1009.73
2016-04-25T03:19:19.023Z,1009.69
2016-04-25T03:20:19.025Z,1009.7
2016-04-25T03:21:19.043Z,1009.68
2016-04-25T03:22:19.046Z,1009.69
2016-04-25T03:23:19.064Z,1009.67
2016-04-25T03:24:19.066Z,1009.67
2016-04-25T03:25:31.819Z,1009.67
2016-04-25T03:26:19.104Z,1009.63
2016-04-25T03:27:19.107Z,1009.65
2016-04-25T03:28:38.312Z,1009.59
2016-04-25T03:29:19.127Z,1009.58
2016-04-25T03:30:44.817Z,1009.59
2016-04-25T03:31:23.163Z,1009.55
2016-04-25T03:33:23.200Z,1009.48
2016-04-25T03:34:23.219Z,1009.48
2016-04-25T03:35:23.221Z,1009.45
2016-04-25T03:36:23.240Z,1009.46
2016-04-25T03:37:29.509Z,1009.4
2016-04-25T03:38:23.261Z,1009.41
2016-04-25T03:39:42.467Z,1009.39
2016-04-25T03:40:23.281Z,1009.4
2016-04-25T03:41:23.284Z,1009.36
2016-04-25T03:42:23.303Z,1009.38
2016-04-25T03:43:23.306Z,1009.36
2016-04-25T03:44:23.323Z,1009.31
2016-04-25T03:45:23.342Z,1009.35
2016-04-25T03:46:23.361Z,1009.37
2016-04-25T03:47:23.379Z,1009.33
2016-04-25T03:48:36.100Z,1009.34
2016-04-25T03:49:29.650Z,1009.33
2016-04-25T03:50:23.387Z,1009.32
2016-04-25T03:51:36.124Z,1009.3
2016-04-25T03:52:49.080Z,1009.31
2016-04-25T03:53:32.958Z,1009.26
2016-04-25T03:54:32.960Z,1009.28
2016-04-25T03:55:45.713Z,1009.24
2016-04-25T03:56:32.997Z,1009.25
2016-04-25T03:57:58.672Z,1009.21
2016-04-25T03:58:33.221Z,1009.21
2016-04-25T03:59:33.020Z,1009.18
2016-04-25T04:00:33.038Z,1009.17
2016-04-25T04:01:33.042Z,1009.15
2016-04-25T04:02:33.060Z,1009.19
2016-04-25T04:03:33.062Z,1009.12
2016-04-25T04:04:33.081Z,1009.14
2016-04-25T04:05:33.084Z,1009.14
2016-04-25T04:06:33.102Z,1009.15
2016-04-25T04:07:45.854Z,1009.14
2016-04-25T04:08:33.123Z,1009.15
2016-04-25T04:09:33.141Z,1009.21
2016-04-25T04:10:33.144Z,1009.19
2016-04-25T04:11:33.162Z,1009.19
2016-04-25T04:12:33.180Z,1009.19
2016-04-25T04:13:33.183Z,1009.18
2016-04-25T04:14:33.202Z,1009.16
2016-04-25T04:16:48.598Z,1009.14
2016-04-25T04:17:48.616Z,1009.14
2016-04-25T04:18:48.619Z,1009.1
2016-04-25T04:19:48.622Z,1009.11
2016-04-25T04:20:48.639Z,1009.08
2016-04-25T04:21:48.659Z,1009.11
2016-04-25T04:22:49.270Z,1009.07
2016-04-25T04:23:48.679Z,1009.09
2016-04-25T04:24:48.681Z,1009.07
2016-04-25T04:26:01.434Z,1009.06
2016-04-25T04:26:48.718Z,1009.06
2016-04-25T04:27:48.722Z,1009.01
2016-04-25T04:28:48.739Z,1009.06
2016-04-25T04:29:48.742Z,1008.98
2016-04-25T04:30:49.369Z,1009.04
2016-04-25T04:31:48.763Z,1009.02
2016-04-25T04:32:48.781Z,1009.09
2016-04-25T04:33:49.394Z,1009.07
2016-04-25T04:34:48.802Z,1009.13
2016-04-25T04:35:48.821Z,1009.1
2016-04-25T04:36:48.823Z,1009.08
2016-04-25T04:37:49.435Z,1009.15
2016-04-25T04:39:14.518Z,1009.13
2016-04-25T04:40:11.143Z,1009.11
2016-04-25T04:41:11.146Z,1009.07
2016-04-25T04:42:36.840Z,1009.1
2016-04-25T04:43:16.467Z,1009.07
2016-04-25T04:44:15.767Z,1009.1
2016-04-25T04:45:25.409Z,1009.11
2016-04-25T04:46:25.429Z,1009.08
2016-04-25T04:47:40.618Z,1009.08
2016-04-25T04:48:40.621Z,1009.1
2016-04-25T04:50:50.798Z,1009.11
2016-04-25T04:51:50.801Z,1009.09
2016-04-25T04:53:03.539Z,1009.1
2016-04-25T04:55:18.764Z,1009.14
2016-04-25T04:56:31.517Z,1009.13
2016-04-25T04:57:28.130Z,1009.14
2016-04-25T04:58:28.163Z,1009.12
2016-04-25T04:59:28.354Z,1009.16
2016-04-25T05:00:28.185Z,1009.13
2016-04-25T05:01:34.453Z,1009.13
2016-04-25T05:02:28.190Z,1009.07
2016-04-25T05:03:28.208Z,1009.03
2016-04-25T05:04:28.227Z,1009.06
2016-04-25T05:05:40.980Z,1009.03
2016-04-25T05:06:28.248Z,1009.01
2016-04-25T05:07:53.938Z,1009.02
2016-04-25T05:08:45.018Z,1009.02
2016-04-25T05:09:32.302Z,1008.98
2016-04-25T05:10:47.540Z,1008.99
2016-04-25T05:11:47.558Z,1008.99
2016-04-25T05:12:47.612Z,1008.97
2016-04-25T05:13:49.080Z,1008.95
2016-04-25T05:14:49.144Z,1008.98
2016-04-25T05:15:47.783Z,1008.94
2016-04-25T05:17:07.080Z,1008.92
2016-04-25T05:18:13.561Z,1008.92
2016-04-25T05:19:23.173Z,1008.87
2016-04-25T05:20:07.032Z,1008.88
2016-04-25T05:21:07.067Z,1008.87
2016-04-25T05:22:07.085Z,1008.82
2016-04-25T05:23:07.110Z,1008.82
2016-04-25T05:24:07.150Z,1008.89
2016-04-25T05:25:07.144Z,1008.89
2016-04-25T05:26:07.167Z,1008.91
2016-04-25T05:27:07.191Z,1008.96
2016-04-25T05:28:07.305Z,1008.93
2016-04-25T05:29:07.232Z,1008.94
2016-04-25T05:30:07.236Z,1008.91
2016-04-25T05:31:07.258Z,1008.91
2016-04-25T05:32:07.278Z,1008.93
2016-04-25T05:33:07.296Z,1008.94
2016-04-25T05:34:07.300Z,1008.87
2016-04-25T05:35:07.334Z,1008.85
2016-04-25T05:36:07.354Z,1008.88
2016-04-25T05:37:07.341Z,1008.87
2016-04-25T05:38:07.361Z,1008.92
2016-04-25T05:39:07.379Z,1008.89
2016-04-25T05:40:07.398Z,1008.85
2016-04-25T05:41:07.417Z,1008.9
2016-04-25T05:42:07.436Z,1008.9
2016-04-25T05:43:20.192Z,1008.94
2016-04-25T05:44:07.473Z,1008.92
2016-04-25T05:45:07.475Z,1008.92
2016-04-25T05:46:07.508Z,1008.89
2016-04-25T05:47:07.511Z,1008.91
2016-04-25T05:48:07.545Z,1008.89
2016-04-25T05:49:07.548Z,1008.91
2016-04-25T05:50:07.567Z,1008.95
2016-04-25T05:51:07.585Z,1008.93
2016-04-25T05:52:07.618Z,1008.89
2016-04-25T05:53:07.637Z,1008.89
2016-04-25T05:54:07.639Z,1008.81
2016-04-25T05:55:07.673Z,1008.83
2016-04-25T05:56:07.692Z,1008.87
2016-04-25T05:57:07.710Z,1008.8
2016-04-25T05:58:07.713Z,1008.83
2016-04-25T05:59:07.763Z,1008.83
2016-04-25T06:00:07.765Z,1008.8
2016-04-25T06:01:07.815Z,1008.73
2016-04-25T06:02:07.817Z,1008.8
2016-04-25T06:03:07.836Z,1008.76
2016-04-25T06:04:07.854Z,1008.8
2016-04-25T06:05:07.887Z,1008.79
2016-04-25T06:06:07.907Z,1008.79
2016-04-25T06:07:07.924Z,1008.82
2016-04-25T06:08:14.212Z,1008.85
2016-04-25T06:09:07.962Z,1008.85
2016-04-25T06:10:07.979Z,1008.82
2016-04-25T06:11:08.014Z,1008.84
2016-04-25T06:12:08.047Z,1008.81
2016-04-25T06:13:08.315Z,1008.75
2016-04-25T06:14:08.084Z,1008.72
2016-04-25T06:15:08.118Z,1008.78
2016-04-25T06:16:08.136Z,1008.76
2016-04-25T06:17:08.155Z,1008.81
2016-04-25T06:18:08.189Z,1008.82
2016-04-25T06:19:08.206Z,1008.79
2016-04-25T06:20:08.241Z,1008.86
2016-04-25T06:21:08.259Z,1008.81
2016-04-25T06:22:21.031Z,1008.85
2016-04-25T06:23:08.312Z,1008.76
2016-04-25T06:24:08.346Z,1008.78
2016-04-25T06:25:08.380Z,1008.79
2016-04-25T06:26:08.398Z,1008.76
2016-04-25T06:27:08.417Z,1008.77
2016-04-25T06:28:11.029Z,1008.8
2016-04-25T06:29:08.469Z,1008.82
2016-04-25T06:30:08.503Z,1008.72
2016-04-25T06:31:08.522Z,1008.77
2016-04-25T06:32:08.539Z,1008.73
2016-04-25T06:33:08.589Z,1008.66
2016-04-25T06:34:08.608Z,1008.71
2016-04-25T06:35:08.735Z,1008.68
2016-04-25T06:36:08.661Z,1008.67
2016-04-25T06:37:14.960Z,1008.64
2016-04-25T06:38:08.727Z,1008.64
2016-04-25T06:39:08.747Z,1008.62
2016-04-25T06:40:21.517Z,1008.6
2016-04-25T06:41:08.799Z,1008.55
2016-04-25T06:42:08.816Z,1008.52
2016-04-25T06:43:08.851Z,1008.54
2016-04-25T06:44:09.743Z,1008.51
2016-04-25T06:45:08.903Z,1008.54
2016-04-25T06:46:08.937Z,1008.5
2016-04-25T06:47:08.971Z,1008.55
2016-04-25T06:48:08.989Z,1008.57
2016-04-25T06:49:09.008Z,1008.5
2016-04-25T06:50:21.779Z,1008.52
2016-04-25T06:51:09.123Z,1008.53
2016-04-25T06:52:09.093Z,1008.51
2016-04-25T06:53:09.112Z,1008.54
2016-04-25T06:54:09.161Z,1008.54
2016-04-25T06:55:09.180Z,1008.59
2016-04-25T06:56:09.198Z,1008.55
2016-04-25T06:57:09.232Z,1008.53
2016-04-25T06:58:09.250Z,1008.52
2016-04-25T06:59:09.284Z,1008.49
2016-04-25T07:00:09.318Z,1008.45
2016-04-25T07:01:09.337Z,1008.41
2016-04-25T07:02:09.370Z,1008.39
2016-04-25T07:03:09.388Z,1008.37
2016-04-25T07:04:09.422Z,1008.35
2016-04-25T07:05:09.441Z,1008.32
2016-04-25T07:06:09.475Z,1008.32
2016-04-25T07:07:09.509Z,1008.31
2016-04-25T07:08:09.527Z,1008.34
2016-04-25T07:09:09.561Z,1008.33
2016-04-25T07:10:09.595Z,1008.35
2016-04-25T07:11:09.613Z,1008.33
2016-04-25T07:12:10.241Z,1008.38
2016-04-25T07:13:09.666Z,1008.34
2016-04-25T07:14:35.374Z,1008.3
2016-04-25T07:15:18.643Z,1008.31
2016-04-25T07:16:18.660Z,1008.3
2016-04-25T07:17:18.695Z,1008.27
2016-04-25T07:18:44.401Z,1008.26
2016-04-25T07:19:28.341Z,1008.22
2016-04-25T07:20:28.374Z,1008.23
2016-04-25T07:21:29.002Z,1008.17
2016-04-25T07:22:28.989Z,1008.13
2016-04-25T07:23:28.445Z,1008.09
2016-04-25T07:24:28.479Z,1008.07
2016-04-25T07:25:28.498Z,1008.1
2016-04-25T07:26:28.531Z,1008.09
2016-04-25T07:27:41.284Z,1008.09
2016-04-25T07:28:28.584Z,1008.09
2016-04-25T07:29:54.289Z,1008.06
2016-04-25T07:30:38.183Z,1008.03
2016-04-25T07:31:38.201Z,1007.93
2016-04-25T07:32:38.220Z,1007.93
2016-04-25T07:33:38.253Z,1007.9
2016-04-25T07:34:38.287Z,1007.89
2016-04-25T07:35:44.572Z,1007.86
2016-04-25T07:36:38.324Z,1007.79
2016-04-25T07:37:38.358Z,1007.8
2016-04-25T07:38:38.376Z,1007.81
2016-04-25T07:39:38.395Z,1007.8
2016-04-25T07:40:51.147Z,1007.79
2016-04-25T07:41:38.431Z,1007.74
2016-04-25T07:42:57.668Z,1007.76
2016-04-25T07:43:38.483Z,1007.72
2016-04-25T07:44:38.517Z,1007.71
2016-04-25T07:45:39.192Z,1007.71
2016-04-25T07:46:38.538Z,1007.71
2016-04-25T07:47:51.307Z,1007.68
2016-04-25T07:48:38.574Z,1007.65
2016-04-25T07:49:57.812Z,1007.6
2016-04-25T07:50:38.643Z,1007.63
2016-04-25T07:52:53.852Z,1007.5
2016-04-25T07:53:53.885Z,1007.54
2016-04-25T07:54:53.904Z,1007.56
2016-04-25T07:55:53.923Z,1007.5
2016-04-25T07:56:53.940Z,1007.46
2016-04-25T07:57:53.958Z,1007.43
2016-04-25T07:58:54.181Z,1007.51
2016-04-25T07:59:53.995Z,1007.51
2016-04-25T08:00:54.014Z,1007.46
2016-04-25T08:02:06.782Z,1007.48
2016-04-25T08:02:54.066Z,1007.49
2016-04-25T08:04:13.350Z,1007.43
2016-04-25T08:04:54.103Z,1007.42
2016-04-25T08:07:09.295Z,1007.4
2016-04-25T08:08:09.314Z,1007.39
2016-04-25T08:09:09.332Z,1007.36
2016-04-25T08:10:09.350Z,1007.28
2016-04-25T08:11:35.044Z,1007.31
2016-04-25T08:12:09.387Z,1007.26
2016-04-25T08:13:09.414Z,1007.25
2016-04-25T08:14:10.026Z,1007.29
2016-04-25T08:15:09.436Z,1007.27
2016-04-25T08:16:09.469Z,1007.23
2016-04-25T08:17:09.486Z,1007.25
2016-04-25T08:18:09.506Z,1007.26
2016-04-25T08:19:10.133Z,1007.25
2016-04-25T08:20:09.542Z,1007.2
2016-04-25T08:21:22.294Z,1007.19
2016-04-25T08:22:09.563Z,1007.14
2016-04-25T08:23:09.598Z,1007.18
2016-04-25T08:24:10.210Z,1007.22
2016-04-25T08:26:24.828Z,1007.16
2016-04-25T08:27:24.845Z,1007.15
2016-04-25T08:28:25.067Z,1007.18
2016-04-25T08:29:25.492Z,1007.18
2016-04-25T08:30:24.901Z,1007.1
2016-04-25T08:31:26.325Z,1007.13
2016-04-25T08:32:24.922Z,1007.14
2016-04-25T08:33:24.955Z,1007.09
2016-04-25T08:34:24.975Z,1007.12
2016-04-25T08:35:24.977Z,1007.11
2016-04-25T08:36:37.745Z,1007.08
2016-04-25T08:37:25.013Z,1007.11
2016-04-25T08:38:25.032Z,1007.08
2016-04-25T08:39:25.050Z,1007.04
2016-04-25T08:40:25.068Z,1007.05
2016-04-25T08:41:25.091Z,1007
2016-04-25T08:42:50.798Z,1007.02
2016-04-25T08:43:31.378Z,1006.98
2016-04-25T08:44:25.225Z,1007
2016-04-25T08:45:25.165Z,1007
2016-04-25T08:46:25.168Z,1006.97
2016-04-25T08:47:25.201Z,1006.9
2016-04-25T08:48:25.220Z,1006.97
2016-04-25T08:49:25.223Z,1007.01
2016-04-25T08:50:25.256Z,1006.93
2016-04-25T08:51:25.259Z,1006.91
2016-04-25T08:52:25.278Z,1006.9
2016-04-25T08:53:25.311Z,1006.91
2016-04-25T08:54:25.314Z,1006.85
2016-04-25T08:55:25.333Z,1006.92
2016-04-25T08:56:31.616Z,1006.89
2016-04-25T08:57:25.369Z,1006.88
2016-04-25T08:58:25.809Z,1006.84
2016-04-25T08:59:38.140Z,1006.81
2016-04-25T09:00:25.424Z,1006.8
2016-04-25T09:01:25.427Z,1006.84
2016-04-25T09:02:25.444Z,1006.8
2016-04-25T09:03:25.463Z,1006.71
2016-04-25T09:04:26.903Z,1006.76
2016-04-25T09:05:25.500Z,1006.76
2016-04-25T09:06:38.268Z,1006.71
2016-04-25T09:07:25.536Z,1006.73
2016-04-25T09:08:38.289Z,1006.63
2016-04-25T09:09:25.574Z,1006.66
2016-04-25T09:10:38.326Z,1006.68
2016-04-25T09:11:25.594Z,1006.63
2016-04-25T09:12:44.831Z,1006.61
2016-04-25T09:13:51.318Z,1006.6
2016-04-25T09:14:25.649Z,1006.59
2016-04-25T09:15:25.667Z,1006.58
2016-04-25T09:16:25.689Z,1006.59
2016-04-25T09:17:35.052Z,1006.55
2016-04-25T09:18:35.070Z,1006.6
2016-04-25T09:19:35.088Z,1006.58
2016-04-25T09:20:35.091Z,1006.58
2016-04-25T09:21:41.391Z,1006.53
2016-04-25T09:22:35.128Z,1006.52
2016-04-25T09:23:35.146Z,1006.48
2016-04-25T09:24:35.211Z,1006.46
2016-04-25T09:25:35.182Z,1006.53
2016-04-25T09:26:35.404Z,1006.44
2016-04-25T09:27:35.219Z,1006.41
2016-04-25T09:28:35.722Z,1006.32
2016-04-25T09:29:35.459Z,1006.29
2016-04-25T09:30:35.259Z,1006.27
2016-04-25T09:31:35.276Z,1006.27
2016-04-25T09:33:00.983Z,1006.3
2016-04-25T09:33:39.220Z,1006.25
2016-04-25T09:34:39.237Z,1006.25
2016-04-25T09:35:39.256Z,1006.23
2016-04-25T09:36:39.275Z,1006.27
2016-04-25T09:37:39.340Z,1006.19
2016-04-25T09:38:39.311Z,1006.11
2016-04-25T09:39:39.376Z,1006.12
2016-04-25T09:40:39.348Z,1006.12
2016-04-25T09:41:39.366Z,1006.05
2016-04-25T09:42:39.384Z,1006.1
2016-04-25T09:43:39.497Z,1006.07
2016-04-25T09:44:45.905Z,1006.02
2016-04-25T09:45:39.439Z,1006.08
2016-04-25T09:46:52.177Z,1006.08
2016-04-25T09:47:39.461Z,1006.05
2016-04-25T09:48:39.494Z,1006.04
2016-04-25T09:49:39.497Z,1006.03
2016-04-25T09:50:39.531Z,1006.01
2016-04-25T09:51:39.533Z,1005.96
2016-04-25T09:52:39.568Z,1005.95
2016-04-25T09:53:39.570Z,1005.95
2016-04-25T09:54:39.588Z,1005.96
2016-04-25T09:55:39.607Z,1005.92
2016-04-25T09:56:39.641Z,1005.98
2016-04-25T09:57:39.659Z,1005.98
2016-04-25T09:58:52.396Z,1005.94
2016-04-25T09:59:42.962Z,1005.98
2016-04-25T10:00:42.996Z,1006.01
2016-04-25T10:01:42.998Z,1005.94
2016-04-25T10:02:43.017Z,1005.93
2016-04-25T10:03:43.050Z,1005.88
2016-04-25T10:04:55.787Z,1005.87
2016-04-25T10:05:43.071Z,1005.8
2016-04-25T10:06:43.090Z,1005.79
2016-04-25T10:07:46.186Z,1005.77
2016-04-25T10:08:46.204Z,1005.75
2016-04-25T10:09:46.223Z,1005.74
2016-04-25T10:10:46.257Z,1005.76
2016-04-25T10:11:46.275Z,1005.75
2016-04-25T10:12:46.277Z,1005.74
2016-04-25T10:13:46.297Z,1005.74
2016-04-25T10:14:46.331Z,1005.72
2016-04-25T10:15:46.333Z,1005.68
2016-04-25T10:16:46.367Z,1005.65
2016-04-25T10:17:52.650Z,1005.67
2016-04-25T10:18:46.403Z,1005.6
2016-04-25T10:19:46.422Z,1005.55
2016-04-25T10:20:46.456Z,1005.56
2016-04-25T10:21:46.443Z,1005.58
2016-04-25T10:22:46.460Z,1005.6
2016-04-25T10:23:46.479Z,1005.47
2016-04-25T10:24:46.513Z,1005.46
2016-04-25T10:26:05.719Z,1005.46
2016-04-25T10:26:49.628Z,1005.42
2016-04-25T10:27:49.646Z,1005.43
2016-04-25T10:28:49.680Z,1005.4
2016-04-25T10:29:49.683Z,1005.32
2016-04-25T10:30:49.702Z,1005.31
2016-04-25T10:31:55.975Z,1005.37
2016-04-25T10:33:02.493Z,1005.36
2016-04-25T10:33:49.762Z,1005.3
2016-04-25T10:34:49.784Z,1005.34
2016-04-25T10:35:49.793Z,1005.33
2016-04-25T10:36:49.811Z,1005.36
2016-04-25T10:37:49.829Z,1005.3
2016-04-25T10:38:49.848Z,1005.34
2016-04-25T10:39:49.851Z,1005.34
2016-04-25T10:40:49.885Z,1005.38
2016-04-25T10:41:49.887Z,1005.39
2016-04-25T10:42:50.514Z,1005.39
2016-04-25T10:43:50.017Z,1005.34
2016-04-25T10:44:50.676Z,1005.47
2016-04-25T10:45:50.570Z,1005.51
2016-04-25T10:46:49.994Z,1005.56
2016-04-25T10:47:49.997Z,1005.72
2016-04-25T10:48:50.016Z,1005.66
2016-04-25T10:49:50.034Z,1005.76
2016-04-25T10:50:50.052Z,1005.83
2016-04-25T10:51:50.664Z,1005.91
2016-04-25T10:52:50.088Z,1005.8
2016-04-25T10:54:02.841Z,1005.83
2016-04-25T10:54:50.109Z,1005.81
2016-04-25T10:55:50.128Z,1005.84
2016-04-25T10:56:50.162Z,1005.77
2016-04-25T10:57:50.165Z,1005.84
2016-04-25T10:58:51.042Z,1005.68
2016-04-25T10:59:50.327Z,1005.7
2016-04-25T11:00:50.204Z,1005.72
2016-04-25T11:01:50.222Z,1005.73
2016-04-25T11:02:50.240Z,1005.77
2016-04-25T11:04:03.009Z,1005.81
2016-04-25T11:04:50.277Z,1005.75
2016-04-25T11:05:50.295Z,1005.75
2016-04-25T11:06:50.298Z,1005.72
2016-04-25T11:07:50.317Z,1005.73
2016-04-25T11:08:50.351Z,1005.7
2016-04-25T11:09:50.353Z,1005.7
2016-04-25T11:10:50.371Z,1005.66
2016-04-25T11:11:50.374Z,1005.64
2016-04-25T11:12:50.408Z,1005.64
2016-04-25T11:13:50.410Z,1005.69
2016-04-25T11:14:50.992Z,1005.62
2016-04-25T11:16:09.650Z,1005.61
2016-04-25T11:16:50.450Z,1005.63
2016-04-25T11:17:50.484Z,1005.63
2016-04-25T11:19:00.050Z,1005.63
2016-04-25T11:20:00.052Z,1005.64
2016-04-25T11:21:00.070Z,1005.65
2016-04-25T11:22:12.823Z,1005.62
2016-04-25T11:23:00.107Z,1005.63
2016-04-25T11:24:25.891Z,1005.56
2016-04-25T11:25:00.127Z,1005.55
2016-04-25T11:27:12.899Z,1005.54
2016-04-25T11:28:00.183Z,1005.52
2016-04-25T11:29:25.905Z,1005.54
2016-04-25T11:30:00.219Z,1005.49
2016-04-25T11:31:00.222Z,1005.48
2016-04-25T11:32:00.225Z,1005.53
2016-04-25T11:33:00.259Z,1005.49
2016-04-25T11:34:00.262Z,1005.5
2016-04-25T11:35:13.014Z,1005.49
2016-04-25T11:36:00.298Z,1005.51
2016-04-25T11:37:00.316Z,1005.5
2016-04-25T11:38:00.350Z,1005.52
2016-04-25T11:39:00.337Z,1005.53
2016-04-25T11:40:00.356Z,1005.51
2016-04-25T11:41:00.373Z,1005.49
2016-04-25T11:42:00.392Z,1005.53
2016-04-25T11:43:00.411Z,1005.55
2016-04-25T11:44:00.428Z,1005.57
2016-04-25T11:45:00.431Z,1005.58
2016-04-25T11:46:09.325Z,1005.54
2016-04-25T11:47:09.348Z,1005.52
2016-04-25T11:48:21.491Z,1005.55
2016-04-25T11:49:15.233Z,1005.5
2016-04-25T11:50:34.458Z,1005.48
2016-04-25T11:51:18.427Z,1005.47
2016-04-25T11:52:18.429Z,1005.47
2016-04-25T11:53:18.452Z,1005.44
2016-04-25T11:54:18.470Z,1005.5
2016-04-25T11:55:18.473Z,1005.42
2016-04-25T11:56:18.695Z,1005.43
2016-04-25T11:57:18.510Z,1005.42
2016-04-25T11:58:37.734Z,1005.39
2016-04-25T11:59:19.609Z,1005.42
2016-04-25T12:00:44.239Z,1005.43
2016-04-25T12:01:53.820Z,1005.41
2016-04-25T12:02:28.164Z,1005.42
2016-04-25T12:03:28.182Z,1005.44
2016-04-25T12:04:28.201Z,1005.43
2016-04-25T12:05:40.956Z,1005.38
2016-04-25T12:06:28.222Z,1005.4
2016-04-25T12:07:28.239Z,1005.39
2016-04-25T12:08:53.948Z,1005.4
2016-04-25T12:09:28.292Z,1005.36
2016-04-25T12:10:28.295Z,1005.39
2016-04-25T12:11:28.313Z,1005.35
2016-04-25T12:12:28.331Z,1005.36
2016-04-25T12:13:47.555Z,1005.35
2016-04-25T12:14:41.105Z,1005.39
2016-04-25T12:15:28.371Z,1005.35
2016-04-25T12:16:28.388Z,1005.3
2016-04-25T12:17:29.016Z,1005.3
2016-04-25T12:18:41.147Z,1005.29
2016-04-25T12:19:28.444Z,1005.24
2016-04-25T12:20:47.652Z,1005.25
2016-04-25T12:21:31.574Z,1005.25
2016-04-25T12:22:31.577Z,1005.26
2016-04-25T12:23:31.596Z,1005.27
2016-04-25T12:24:31.816Z,1005.2
2016-04-25T12:25:31.632Z,1005.23